Time;durP1;ratioP1;P1;durP2;ratioP2;P2;SDS_P1;SDS_P2;PMS_P1;PMS_P2;Temp;Humidity;BMP_temperature;BMP_pressure;BME280_temperature;BME280_humidity;BME280_pressure;Samples;Min_cycle;Max_cycle;Signal;HPM_P1;HPM_P2
2022/03/07 00:00:31;;;;;;;44.92;32.63;;;;;;;-1.95;71.63;95674.47;6299484;22;20003;-60
2022/03/07 00:02:57;;;;;;;49.55;34.38;;;;;;;-1.98;72.01;95674.59;6299027;22;20003;-60
2022/03/07 00:05:22;;;;;;;54.42;35.67;;;;;;;-2.01;72.40;95667.81;6298940;22;20010;-59
2022/03/07 00:07:48;;;;;;;49.05;32.08;;;;;;;-2.05;72.24;95669.72;6298477;22;20010;-60
2022/03/07 00:10:13;;;;;;;52.63;32.25;;;;;;;-2.04;72.30;95675.69;6299053;22;20327;-60
2022/03/07 00:12:38;;;;;;;55.30;32.78;;;;;;;-2.02;72.98;95679.91;6299457;22;20010;-60
2022/03/07 00:15:04;;;;;;;55.60;33.67;;;;;;;-2.06;73.39;95685.25;6299524;22;20338;-60
2022/03/07 00:17:30;;;;;;;49.22;32.97;;;;;;;-2.13;73.65;95691.56;6299269;22;20052;-60
2022/03/07 00:19:55;;;;;;;48.50;33.03;;;;;;;-2.15;72.68;95683.88;6271761;22;20086;-59
2022/03/07 00:22:21;;;;;;;48.50;33.28;;;;;;;-2.17;72.07;95694.28;6300749;22;20018;-60
2022/03/07 00:24:46;;;;;;;50.33;32.22;;;;;;;-2.20;73.83;95688.41;6300414;22;20004;-60
2022/03/07 00:27:11;;;;;;;49.42;31.38;;;;;;;-2.25;73.77;95685.19;6300825;22;20049;-59
2022/03/07 00:29:37;;;;;;;51.92;33.28;;;;;;;-2.33;73.36;95685.50;6300578;22;20540;-60
2022/03/07 00:32:02;;;;;;;40.05;28.27;;;;;;;-2.23;72.46;95681.63;6299729;22;20003;-60
2022/03/07 00:34:28;;;;;;;42.67;28.02;;;;;;;-2.33;74.96;95698.41;6300378;22;20010;-60
2022/03/07 00:36:53;;;;;;;39.10;25.98;;;;;;;-2.40;75.03;95691.81;6300528;22;20351;-60
2022/03/07 00:39:19;;;;;;;28.63;23.73;;;;;;;-2.40;74.22;95692.66;6300843;22;20399;-60
2022/03/07 00:41:44;;;;;;;30.42;24.42;;;;;;;-2.36;74.11;95689.03;6300149;22;20007;-60
2022/03/07 00:44:09;;;;;;;29.48;23.58;;;;;;;-2.39;74.05;95689.16;6300441;22;20332;-60
2022/03/07 00:46:35;;;;;;;31.45;24.48;;;;;;;-2.47;73.74;95692.06;6300423;22;20070;-60
2022/03/07 00:49:00;;;;;;;30.02;22.83;;;;;;;-2.49;73.22;95693.84;6300745;22;20018;-60
2022/03/07 00:51:25;;;;;;;30.63;24.20;;;;;;;-2.46;72.95;95691.16;6300170;22;20014;-60
2022/03/07 00:53:51;;;;;;;32.75;24.80;;;;;;;-2.49;74.62;95690.47;6300277;22;20376;-60
2022/03/07 00:56:16;;;;;;;32.10;23.45;;;;;;;-2.50;74.23;95689.59;6300490;22;20008;-60
2022/03/07 00:58:42;;;;;;;29.15;24.35;;;;;;;-2.54;74.97;95700.09;6300336;22;20003;-60
2022/03/07 01:01:07;;;;;;;33.35;23.98;;;;;;;-2.55;74.68;95698.41;6300150;22;20085;-60
2022/03/07 01:03:33;;;;;;;28.65;22.88;;;;;;;-2.55;73.67;95701.84;6300401;22;20004;-60
2022/03/07 01:05:58;;;;;;;28.52;22.65;;;;;;;-2.55;73.54;95693.25;6300466;22;20004;-60
2022/03/07 01:08:26;;;;;;;31.33;23.88;;;;;;;-2.58;73.87;95696.81;6300425;22;20102;-60
2022/03/07 01:10:52;;;;;;;31.65;24.55;;;;;;;-2.61;74.41;95690.03;6299928;22;20102;-60
2022/03/07 01:13:18;;;;;;;33.08;25.88;;;;;;;-2.59;74.50;95690.81;6300520;22;20442;-60
2022/03/07 01:15:44;;;;;;;29.15;22.77;;;;;;;-2.58;74.40;95696.81;6300448;22;19995;-60
2022/03/07 01:18:10;;;;;;;32.63;23.15;;;;;;;-2.56;74.40;95696.75;6300197;22;20006;-60
2022/03/07 01:20:35;;;;;;;29.80;23.65;;;;;;;-2.62;74.63;95690.94;6300110;22;20079;-60
2022/03/07 01:23:00;;;;;;;29.15;23.25;;;;;;;-2.68;75.97;95685.19;6299763;22;20495;-60
2022/03/07 01:25:26;;;;;;;30.85;23.15;;;;;;;-2.70;76.71;95689.56;6300049;22;20031;-61
2022/03/07 01:27:51;;;;;;;31.42;22.83;;;;;;;-2.71;76.02;95685.31;6299967;22;20346;-60
2022/03/07 01:30:17;;;;;;;28.40;23.60;;;;;;;-2.72;75.46;95683.63;6299914;22;20350;-61
2022/03/07 01:32:42;;;;;;;27.17;22.92;;;;;;;-2.70;76.03;95679.25;6299901;22;20006;-60
2022/03/07 01:35:08;;;;;;;28.20;22.35;;;;;;;-2.70;76.00;95681.84;6300236;22;20034;-60
2022/03/07 01:37:33;;;;;;;28.33;22.98;;;;;;;-2.74;76.41;95678.56;6272722;22;20382;-60
2022/03/07 01:39:59;;;;;;;26.48;20.70;;;;;;;-2.79;76.76;95673.56;6300371;22;20008;-60
2022/03/07 01:42:24;;;;;;;27.70;22.90;;;;;;;-2.82;76.19;95675.44;6300430;22;20070;-60
2022/03/07 01:44:49;;;;;;;28.50;22.95;;;;;;;-2.81;76.88;95666.78;6299814;22;20003;-60
2022/03/07 01:47:15;;;;;;;27.60;22.23;;;;;;;-2.84;76.47;95670.34;6299924;22;20014;-60
2022/03/07 01:49:41;;;;;;;31.90;24.02;;;;;;;-2.88;76.51;95669.63;6299948;22;20400;-60
2022/03/07 01:52:07;;;;;;;30.23;22.73;;;;;;;-2.90;76.52;95670.56;6300576;22;20067;-60
2022/03/07 01:54:33;;;;;;;27.75;22.48;;;;;;;-2.90;76.65;95673.16;6300077;22;20567;-60
2022/03/07 01:56:58;;;;;;;29.95;22.27;;;;;;;-2.94;76.51;95674.16;6300027;22;20010;-60
2022/03/07 01:59:27;;;;;;;28.17;22.98;;;;;;;-2.94;76.81;95669.03;6300693;22;20026;-60
2022/03/07 02:01:54;;;;;;;29.75;22.42;;;;;;;-2.91;77.26;95664.59;6300143;22;20003;-60
2022/03/07 02:04:20;;;;;;;30.55;22.85;;;;;;;-2.93;77.69;95668.97;6299938;22;20022;-60
2022/03/07 02:06:47;;;;;;;30.38;23.25;;;;;;;-2.96;76.37;95670.81;6300006;22;20445;-60
2022/03/07 02:09:13;;;;;;;26.13;22.00;;;;;;;-3.00;77.19;95667.50;6300011;22;20022;-59
2022/03/07 02:11:39;;;;;;;28.75;22.35;;;;;;;-3.01;77.14;95665.84;6300143;22;20455;-60
2022/03/07 02:14:24;;;;;;;26.67;22.88;;;;;;;-2.99;76.09;95668.38;6299949;22;20152;-60
2022/03/07 02:16:51;;;;;;;28.63;22.40;;;;;;;-3.04;76.46;95673.69;6299929;22;20550;-60
2022/03/07 02:19:16;;;;;;;30.60;23.58;;;;;;;-3.07;76.94;95673.81;6299981;22;20007;-60
2022/03/07 02:21:44;;;;;;;30.95;22.35;;;;;;;-3.11;77.21;95669.69;6300196;22;20086;-60
2022/03/07 02:24:10;;;;;;;29.83;22.92;;;;;;;-3.09;76.95;95670.47;6299910;22;20087;-60
2022/03/07 02:26:35;;;;;;;29.95;23.45;;;;;;;-3.14;78.12;95675.78;6299839;22;20003;-60
2022/03/07 02:29:01;;;;;;;28.23;23.70;;;;;;;-3.18;77.04;95677.66;6300069;22;20010;-60
2022/03/07 02:31:26;;;;;;;36.30;25.25;;;;;;;-3.22;77.21;95668.34;6299348;22;20082;-60
2022/03/07 02:33:52;;;;;;;31.70;23.90;;;;;;;-3.24;78.10;95665.00;6299469;22;20007;-60
2022/03/07 02:36:18;;;;;;;27.70;23.15;;;;;;;-3.21;76.85;95671.78;6300200;22;20066;-60
2022/03/07 02:38:43;;;;;;;27.73;22.30;;;;;;;-3.26;77.05;95674.50;6299818;22;19996;-60
2022/03/07 02:41:09;;;;;;;26.58;21.23;;;;;;;-3.25;78.01;95673.63;6299747;22;20455;-60
2022/03/07 02:43:34;;;;;;;32.80;25.40;;;;;;;-3.26;77.14;95666.78;6299653;22;20196;-60
2022/03/07 02:46:01;;;;;;;31.30;22.92;;;;;;;-3.32;78.85;95667.03;6298977;22;20015;-59
2022/03/07 02:48:27;;;;;;;28.98;23.52;;;;;;;-3.39;78.90;95658.69;6300106;22;20510;-60
2022/03/07 02:50:53;;;;;;;30.13;23.55;;;;;;;-3.42;78.10;95663.13;6299591;22;20008;-60
2022/03/07 02:53:18;;;;;;;30.42;23.60;;;;;;;-3.36;78.75;95665.47;6300161;22;20010;-60
2022/03/07 02:55:44;;;;;;;27.83;23.55;;;;;;;-3.37;77.66;95653.50;6299660;22;20465;-61
2022/03/07 02:58:10;;;;;;;26.25;22.52;;;;;;;-3.40;77.13;95649.28;6299999;22;20087;-60
2022/03/07 03:00:35;;;;;;;29.27;21.73;;;;;;;-3.42;76.86;95645.13;6299919;22;20011;-59
2022/03/07 03:03:01;;;;;;;25.85;21.38;;;;;;;-3.42;77.92;95652.84;6299469;22;20008;-59
2022/03/07 03:05:26;;;;;;;27.98;22.42;;;;;;;-3.39;77.56;95642.41;6246497;22;20011;-60
2022/03/07 03:07:52;;;;;;;24.55;21.13;;;;;;;-3.36;77.05;95642.31;6299571;22;20075;-59
2022/03/07 03:10:18;;;;;;;30.48;21.98;;;;;;;-3.35;77.76;95643.97;6299974;22;20095;-60
2022/03/07 03:12:45;;;;;;;28.52;23.23;;;;;;;-3.37;77.29;95648.34;6299903;22;20007;-60
2022/03/07 03:15:11;;;;;;;28.50;22.10;;;;;;;-3.45;78.21;95641.72;6299761;22;20007;-60
2022/03/07 03:17:43;;;;;;;30.13;23.02;;;;;;;-3.49;77.56;95647.91;6300003;22;20011;-59
2022/03/07 03:20:11;;;;;;;26.42;21.17;;;;;;;-3.50;78.75;95641.06;6299505;22;20055;-59
2022/03/07 03:22:37;;;;;;;29.27;22.08;;;;;;;-3.52;77.54;95637.72;6300282;22;20402;-60
2022/03/07 03:25:04;;;;;;;34.15;23.05;;;;;;;-3.54;78.75;95642.09;6299584;22;20074;-59
2022/03/07 03:27:29;;;;;;;27.50;22.33;;;;;;;-3.57;78.66;95639.63;6299562;22;19999;-60
2022/03/07 03:29:55;;;;;;;26.25;22.85;;;;;;;-3.58;78.88;95637.97;6299590;22;20010;-60
2022/03/07 03:32:20;;;;;;;27.05;21.67;;;;;;;-3.57;79.38;95639.63;6299698;22;20067;-59
2022/03/07 03:34:45;;;;;;;29.17;22.27;;;;;;;-3.59;78.61;95636.28;6299765;22;20339;-59
2022/03/07 03:37:11;;;;;;;26.55;22.13;;;;;;;-3.61;77.85;95638.91;6299771;22;20030;-59
2022/03/07 03:39:37;;;;;;;27.13;22.20;;;;;;;-3.55;78.06;95640.41;6299617;22;20003;-60
2022/03/07 03:42:02;;;;;;;30.60;20.75;;;;;;;-3.55;78.25;95644.72;6299506;22;20040;-60
2022/03/07 03:44:28;;;;;;;25.35;20.88;;;;;;;-3.62;79.01;95650.09;6299898;22;20017;-59
2022/03/07 03:46:53;;;;;;;27.45;21.63;;;;;;;-3.62;79.22;95646.69;6299308;22;20447;-59
2022/03/07 03:49:19;;;;;;;27.08;22.13;;;;;;;-3.65;78.44;95651.94;6299686;22;19999;-60
2022/03/07 03:51:44;;;;;;;28.17;21.23;;;;;;;-3.65;78.82;95647.63;6299469;22;20011;-60
2022/03/07 03:54:09;;;;;;;31.42;22.75;;;;;;;-3.65;79.77;95642.47;6299301;22;20342;-60
2022/03/07 03:56:35;;;;;;;29.63;22.00;;;;;;;-3.63;78.71;95648.41;6299566;22;20368;-60
2022/03/07 03:59:00;;;;;;;30.88;23.27;;;;;;;-3.64;78.77;95653.63;6299377;22;20014;-60
2022/03/07 04:01:25;;;;;;;24.40;20.73;;;;;;;-3.66;79.91;95653.69;6299224;22;20003;-59
2022/03/07 04:03:51;;;;;;;28.88;22.20;;;;;;;-3.67;79.41;95651.16;6299327;22;20007;-60
2022/03/07 04:06:16;;;;;;;24.73;21.60;;;;;;;-3.67;78.88;95656.28;6299604;22;20481;-60
2022/03/07 04:09:05;;;;;;;24.98;20.42;;;;;;;-3.74;80.42;95656.53;6299186;22;20003;-60
2022/03/07 04:11:30;;;;;;;30.90;22.42;;;;;;;-3.80;79.62;95659.31;6298549;22;20103;-60
2022/03/07 04:13:56;;;;;;;30.05;20.75;;;;;;;-3.83;80.06;95654.28;6299218;22;20035;-60
2022/03/07 04:16:21;;;;;;;27.90;23.10;;;;;;;-3.88;80.25;95657.03;6299455;22;20039;-60
2022/03/07 04:18:46;;;;;;;27.65;22.85;;;;;;;-3.91;80.10;95649.41;6298852;22;20000;-60
2022/03/07 04:21:12;;;;;;;24.42;21.80;;;;;;;-3.93;81.98;95651.22;6298966;22;20010;-60
2022/03/07 04:23:37;;;;;;;27.38;21.88;;;;;;;-3.93;80.21;95656.34;6299237;22;20082;-60
2022/03/07 04:26:03;;;;;;;34.30;22.70;;;;;;;-3.97;80.98;95656.50;6271860;22;20510;-60
2022/03/07 04:28:29;;;;;;;33.90;24.70;;;;;;;-4.03;80.70;95660.97;6299363;22;20014;-60
2022/03/07 04:30:54;;;;;;;32.03;24.35;;;;;;;-4.04;79.96;95658.44;6271617;22;20007;-60
2022/03/07 04:33:19;;;;;;;28.23;22.50;;;;;;;-3.98;80.89;95654.84;6299073;22;20015;-60
2022/03/07 04:35:45;;;;;;;24.52;21.60;;;;;;;-3.97;79.69;95661.66;6299178;22;20069;-60
2022/03/07 04:38:10;;;;;;;26.38;21.98;;;;;;;-3.97;80.47;95656.50;6298440;22;20031;-60
2022/03/07 04:40:35;;;;;;;28.33;23.27;;;;;;;-4.03;81.37;95658.41;6299067;22;20004;-60
2022/03/07 04:43:01;;;;;;;32.33;24.08;;;;;;;-4.09;81.42;95655.22;6298611;22;20399;-60
2022/03/07 04:45:26;;;;;;;31.48;22.55;;;;;;;-4.05;79.91;95659.34;6299207;22;20443;-60
2022/03/07 04:47:52;;;;;;;26.45;21.45;;;;;;;-4.01;81.17;95654.94;6298965;22;20018;-60
2022/03/07 04:50:17;;;;;;;28.58;22.30;;;;;;;-4.05;80.96;95655.06;6271514;22;20030;-60
2022/03/07 04:52:43;;;;;;;31.33;22.83;;;;;;;-4.06;80.17;95652.53;6299315;22;19996;-60
2022/03/07 04:55:10;;;;;;;27.63;21.63;;;;;;;-4.10;80.50;95656.94;6298706;22;20426;-60
2022/03/07 04:57:37;;;;;;;28.77;22.20;;;;;;;-4.14;80.50;95655.38;6298876;22;20003;-60
2022/03/07 05:00:09;;;;;;;33.33;22.38;;;;;;;-4.15;80.65;95661.41;6298967;22;20003;-60
2022/03/07 05:02:34;;;;;;;29.25;23.98;;;;;;;-4.13;80.69;95653.66;6271305;22;20306;-60
2022/03/07 05:05:00;;;;;;;28.38;22.02;;;;;;;-4.12;81.14;95656.16;6271422;22;20091;-59
2022/03/07 05:07:25;;;;;;;31.15;24.77;;;;;;;-4.15;80.11;95658.00;6299138;22;20427;-60
2022/03/07 05:09:51;;;;;;;33.33;23.67;;;;;;;-4.18;80.73;95659.78;6273097;22;20095;-60
2022/03/07 05:12:16;;;;;;;30.92;23.45;;;;;;;-4.16;81.61;95657.16;6300106;22;20003;-60
2022/03/07 05:14:42;;;;;;;31.20;24.10;;;;;;;-4.16;80.56;95657.16;6300086;22;20079;-60
2022/03/07 05:17:07;;;;;;;30.25;24.73;;;;;;;-4.18;80.63;95658.94;6299343;22;20010;-63
2022/03/07 05:19:32;;;;;;;30.35;22.98;;;;;;;-4.21;81.66;95649.59;6300368;22;20435;-60
2022/03/07 05:21:58;;;;;;;33.97;24.40;;;;;;;-4.22;81.47;95662.50;6300301;22;20007;-60
2022/03/07 05:24:23;;;;;;;34.67;27.30;;;;;;;-4.24;81.85;95659.97;6300412;22;20074;-60
2022/03/07 05:26:49;;;;;;;33.78;25.95;;;;;;;-4.26;81.58;95666.09;6272659;22;20461;-60
2022/03/07 05:29:15;;;;;;;33.10;25.90;;;;;;;-4.30;81.76;95656.81;6300083;22;20003;-59
2022/03/07 05:31:40;;;;;;;29.75;25.33;;;;;;;-4.30;82.08;95664.53;6300081;22;20452;-59
2022/03/07 05:34:06;;;;;;;28.58;23.83;;;;;;;-4.30;82.18;95661.94;6299664;22;20383;-60
2022/03/07 05:36:31;;;;;;;31.63;25.05;;;;;;;-4.32;82.08;95656.84;6300195;22;20514;-60
2022/03/07 05:38:57;;;;;;;33.60;25.38;;;;;;;-4.31;81.26;95661.09;6300038;22;20022;-60
2022/03/07 05:41:22;;;;;;;36.28;27.30;;;;;;;-4.31;80.93;95663.66;6300179;22;20027;-60
2022/03/07 05:43:47;;;;;;;33.53;27.23;;;;;;;-4.33;81.80;95661.13;6299913;22;20674;-60
2022/03/07 05:46:13;;;;;;;33.72;27.55;;;;;;;-4.34;81.46;95668.91;6300127;22;20033;-59
2022/03/07 05:48:38;;;;;;;31.48;26.48;;;;;;;-4.34;82.13;95661.19;6299191;22;20047;-60
2022/03/07 05:51:04;;;;;;;29.88;24.30;;;;;;;-4.33;82.34;95673.97;6299776;22;20035;-60
2022/03/07 05:53:29;;;;;;;33.83;25.88;;;;;;;-4.35;81.69;95672.38;6299818;22;20350;-60
2022/03/07 05:55:55;;;;;;;30.92;23.83;;;;;;;-4.30;81.47;95673.06;6300184;22;20000;-60
2022/03/07 05:58:20;;;;;;;33.42;25.17;;;;;;;-4.26;82.26;95676.38;6299683;22;20003;-60
2022/03/07 06:00:45;;;;;;;30.33;25.67;;;;;;;-4.28;82.74;95670.44;6299542;22;20139;-60
2022/03/07 06:03:11;;;;;;;33.42;26.48;;;;;;;-4.29;82.02;95673.91;6299124;22;20019;-60
2022/03/07 06:05:37;;;;;;;33.38;26.40;;;;;;;-4.28;82.76;95675.59;6299437;22;20042;-60
2022/03/07 06:08:04;;;;;;;32.97;25.30;;;;;;;-4.27;82.50;95672.13;6299349;22;20046;-60
2022/03/07 06:10:29;;;;;;;38.88;25.88;;;;;;;-4.32;82.10;95683.38;6299247;22;20024;-60
2022/03/07 06:12:55;;;;;;;30.65;24.92;;;;;;;-4.34;82.40;95681.75;6299724;22;20435;-60
2022/03/07 06:15:20;;;;;;;32.55;24.63;;;;;;;-4.30;82.23;95685.91;6271033;22;20011;-60
2022/03/07 06:17:54;;;;;;;28.98;23.67;;;;;;;-4.32;82.31;95688.50;6298694;22;20055;-60
2022/03/07 06:20:20;;;;;;;32.42;25.65;;;;;;;-4.35;82.57;95688.63;6297316;22;20021;-60
2022/03/07 06:22:46;;;;;;;32.08;23.50;;;;;;;-4.32;81.76;95688.50;6297607;22;20450;-60
2022/03/07 06:25:12;;;;;;;32.95;24.10;;;;;;;-4.29;83.48;95689.34;6298509;22;20422;-60
2022/03/07 06:27:38;;;;;;;31.73;25.33;;;;;;;-4.32;82.88;95697.97;6297660;22;20003;-60
2022/03/07 06:30:04;;;;;;;30.17;22.67;;;;;;;-4.29;83.34;95703.00;6298292;22;20061;-60
2022/03/07 06:32:29;;;;;;;32.13;25.00;;;;;;;-4.29;83.02;95703.00;6299228;22;20012;-59
2022/03/07 06:34:55;;;;;;;37.63;25.00;;;;;;;-4.29;84.40;95710.72;6299173;22;20461;-60
2022/03/07 06:37:21;;;;;;;35.45;26.10;;;;;;;-4.26;83.65;95708.03;6299689;22;20011;-60
2022/03/07 06:39:47;;;;;;;40.08;30.30;;;;;;;-4.23;83.25;95712.25;6297034;22;20454;-60
2022/03/07 06:42:12;;;;;;;40.97;30.08;;;;;;;-4.19;83.26;95713.81;6297959;22;20014;-60
2022/03/07 06:44:39;;;;;;;34.63;27.90;;;;;;;-4.14;83.70;95711.94;6298485;22;20027;-60
2022/03/07 06:47:08;;;;;;;36.08;26.98;;;;;;;-4.10;83.22;95708.38;6299554;22;19999;-62
2022/03/07 06:49:33;;;;;;;38.22;28.73;;;;;;;-4.07;83.73;95717.72;6299441;22;20003;-61
2022/03/07 06:51:59;;;;;;;37.08;29.80;;;;;;;-4.01;83.60;95714.09;6299714;22;20056;-50
2022/03/07 06:54:24;;;;;;;43.20;28.55;;;;;;;-3.98;83.51;95720.00;6298855;22;20036;-51
2022/03/07 06:56:50;;;;;;;42.03;29.23;;;;;;;-3.93;82.46;95720.66;6269710;22;20043;-52
2022/03/07 06:59:15;;;;;;;36.92;28.02;;;;;;;-3.90;82.55;95730.00;6298316;22;20003;-48
2022/03/07 07:01:41;;;;;;;39.03;29.75;;;;;;;-3.83;82.26;95728.91;6298569;22;20009;-50
2022/03/07 07:04:06;;;;;;;35.97;28.15;;;;;;;-3.79;81.84;95720.19;6298347;22;20683;-49
2022/03/07 07:06:32;;;;;;;35.53;28.58;;;;;;;-3.71;81.31;95734.50;6299903;22;20529;-48
2022/03/07 07:08:57;;;;;;;42.58;33.70;;;;;;;-3.63;80.77;95732.53;6272227;22;20003;-54
2022/03/07 07:11:22;;;;;;;45.70;32.20;;;;;;;-3.54;81.57;95736.47;6298452;22;20059;-52
2022/03/07 07:13:48;;;;;;;41.30;32.20;;;;;;;-3.49;82.46;95742.31;6298985;22;20453;-47
2022/03/07 07:16:13;;;;;;;43.60;32.47;;;;;;;-3.50;81.64;95735.50;6300070;22;20335;-54
2022/03/07 07:18:39;;;;;;;43.30;34.80;;;;;;;-3.44;82.01;95748.13;6299623;22;20006;-50
2022/03/07 07:21:07;;;;;;;46.38;32.22;;;;;;;-3.38;81.79;95741.94;6299342;22;20026;-51
2022/03/07 07:23:32;;;;;;;47.03;33.45;;;;;;;-3.37;81.23;95747.00;6298955;22;20083;-50
2022/03/07 07:25:57;;;;;;;42.90;31.65;;;;;;;-3.38;81.99;95741.94;6299480;22;19999;-53
2022/03/07 07:28:23;;;;;;;46.40;31.55;;;;;;;-3.35;80.79;95741.81;6299522;22;20003;-50
2022/03/07 07:30:49;;;;;;;40.10;29.73;;;;;;;-3.31;80.85;95743.38;6299039;22;20011;-49
2022/03/07 07:33:15;;;;;;;41.40;28.80;;;;;;;-3.21;79.69;95747.28;6299861;22;20075;-48
2022/03/07 07:35:40;;;;;;;40.92;30.27;;;;;;;-3.16;81.95;95744.53;6299922;22;20034;-52
2022/03/07 07:38:07;;;;;;;39.28;29.40;;;;;;;-3.11;80.60;95746.97;6299002;22;19999;-52
2022/03/07 07:40:32;;;;;;;40.13;26.40;;;;;;;-3.01;80.33;95748.28;6299614;22;20003;-53
2022/03/07 07:42:58;;;;;;;33.35;25.63;;;;;;;-2.97;79.79;95749.00;6298796;22;20124;-53
2022/03/07 07:45:24;;;;;;;38.28;25.38;;;;;;;-2.92;80.29;95749.66;6299107;22;19999;-50
2022/03/07 07:47:50;;;;;;;32.55;27.33;;;;;;;-2.87;80.81;95747.78;6271983;22;20070;-53
2022/03/07 07:50:15;;;;;;;40.58;26.42;;;;;;;-2.81;80.77;95750.13;6299476;22;20495;-52
2022/03/07 07:52:40;;;;;;;35.03;25.48;;;;;;;-2.66;78.84;95746.09;6299687;22;19999;-52
2022/03/07 07:55:06;;;;;;;41.25;25.52;;;;;;;-2.60;80.44;95753.59;6299525;22;20034;-48
2022/03/07 07:57:32;;;;;;;33.47;26.13;;;;;;;-2.19;79.78;95744.25;6299636;22;20059;-52
2022/03/07 07:59:58;;;;;;;32.70;23.58;;;;;;;-1.37;75.16;95747.72;6299699;22;20003;-52
2022/03/07 08:02:23;;;;;;;27.13;22.20;;;;;;;-0.62;72.54;95740.03;6299065;22;20003;-49
2022/03/07 08:04:51;;;;;;;30.38;24.17;;;;;;;0.11;69.38;95747.72;6299302;22;20098;-53
2022/03/07 08:07:17;;;;;;;36.25;29.55;;;;;;;0.72;67.44;95747.25;6299736;22;20079;-50
2022/03/07 08:09:43;;;;;;;32.33;24.33;;;;;;;0.88;66.67;95752.47;6299373;22;20012;-52
2022/03/07 08:12:08;;;;;;;30.95;24.65;;;;;;;1.25;64.10;95753.09;6299577;22;20076;-50
2022/03/07 08:14:34;;;;;;;25.15;22.45;;;;;;;1.44;63.17;95752.09;6298979;22;20031;-48
2022/03/07 08:16:59;;;;;;;27.83;22.40;;;;;;;1.59;61.70;95754.78;6299085;22;20007;-51
2022/03/07 08:19:25;;;;;;;23.55;20.70;;;;;;;1.65;60.39;95759.63;6299017;22;20076;-48
2022/03/07 08:21:52;;;;;;;24.88;18.65;;;;;;;1.59;59.85;95758.19;6299316;22;20138;-51
2022/03/07 08:24:17;;;;;;;25.30;19.63;;;;;;;1.38;59.75;95762.84;6299351;22;20004;-52
2022/03/07 08:26:42;;;;;;;21.30;18.58;;;;;;;1.53;60.45;95756.78;6299061;22;20007;-50
2022/03/07 08:29:08;;;;;;;26.65;23.83;;;;;;;1.69;60.82;95758.53;6299445;22;20012;-48
2022/03/07 08:31:33;;;;;;;25.50;20.70;;;;;;;2.05;59.85;95757.38;6298943;22;19999;-53
2022/03/07 08:33:58;;;;;;;29.33;25.73;;;;;;;2.31;58.83;95756.78;6298989;22;20361;-51
2022/03/07 08:36:24;;;;;;;31.35;26.73;;;;;;;2.44;57.97;95755.16;6299502;22;19999;-52
2022/03/07 08:38:49;;;;;;;31.02;27.58;;;;;;;2.63;57.99;95748.88;6299140;22;20411;-52
2022/03/07 08:41:15;;;;;;;24.23;21.20;;;;;;;2.79;58.54;95757.44;6298746;22;20475;-53
2022/03/07 08:43:42;;;;;;;22.25;19.02;;;;;;;3.37;56.67;95752.16;6300685;22;20606;-53
2022/03/07 08:46:07;;;;;;;24.90;19.92;;;;;;;3.58;56.07;95747.38;6300414;22;20004;-51
2022/03/07 08:48:33;;;;;;;26.17;19.35;;;;;;;3.50;54.99;95756.59;6300597;22;20520;-53
2022/03/07 08:50:59;;;;;;;22.80;18.67;;;;;;;3.56;54.62;95756.22;6300107;22;20376;-53
2022/03/07 08:53:24;;;;;;;22.20;18.40;;;;;;;3.73;53.78;95755.13;6300455;22;20086;-52
2022/03/07 08:55:50;;;;;;;25.55;19.85;;;;;;;3.75;53.12;95760.25;6300501;22;20003;-52
2022/03/07 08:58:15;;;;;;;27.90;23.75;;;;;;;3.69;53.03;95754.50;6300409;22;20007;-50
2022/03/07 09:00:40;;;;;;;28.58;24.38;;;;;;;3.77;50.26;95759.22;6273021;22;20083;-53
2022/03/07 09:03:06;;;;;;;42.40;31.83;;;;;;;3.78;50.60;95760.91;6300061;22;20031;-54
2022/03/07 09:05:31;;;;;;;38.05;29.70;;;;;;;3.84;51.68;95757.03;6273074;22;20018;-53
2022/03/07 09:07:57;;;;;;;26.65;22.35;;;;;;;3.96;51.67;95756.25;6300255;22;20388;-53
2022/03/07 09:10:22;;;;;;;25.38;21.58;;;;;;;4.07;50.13;95757.31;6300168;22;20015;-54
2022/03/07 09:12:49;;;;;;;25.65;21.95;;;;;;;4.03;50.34;95748.88;6273118;22;20339;-53
2022/03/07 09:15:14;;;;;;;26.33;22.02;;;;;;;4.29;49.59;95748.94;6272952;22;20447;-52
2022/03/07 09:17:41;;;;;;;27.67;23.70;;;;;;;4.20;49.12;95752.97;6300467;22;20010;-51
2022/03/07 09:20:08;;;;;;;25.90;20.95;;;;;;;4.44;48.39;95745.31;6299929;22;20019;-53
2022/03/07 09:22:35;;;;;;;24.52;21.85;;;;;;;4.52;48.40;95751.78;6300461;22;20004;-52
2022/03/07 09:25:02;;;;;;;26.38;22.58;;;;;;;4.53;48.07;95746.47;6300073;22;19999;-52
2022/03/07 09:27:27;;;;;;;30.08;22.20;;;;;;;4.70;47.56;95747.09;6300341;22;19999;-52
2022/03/07 09:29:52;;;;;;;24.05;20.58;;;;;;;4.94;47.18;95748.94;6300619;22;20453;-54
2022/03/07 09:32:18;;;;;;;26.10;21.38;;;;;;;5.06;46.90;95748.13;6299964;22;20003;-51
2022/03/07 09:34:44;;;;;;;26.85;20.50;;;;;;;5.22;46.29;95741.84;6300311;22;20003;-49
2022/03/07 09:37:10;;;;;;;26.13;21.40;;;;;;;5.35;45.94;95747.84;6300572;22;20009;-51
2022/03/07 09:39:36;;;;;;;25.65;21.40;;;;;;;5.45;45.68;95745.41;6300022;22;20014;-53
2022/03/07 09:42:02;;;;;;;24.15;20.58;;;;;;;5.78;45.36;95743.09;6300003;22;20078;-50
2022/03/07 09:44:28;;;;;;;28.20;22.95;;;;;;;5.99;45.49;95738.13;6300380;22;20383;-52
2022/03/07 09:46:58;;;;;;;26.55;22.45;;;;;;;6.23;44.54;95732.06;6299989;22;20431;-53
2022/03/07 09:49:24;;;;;;;26.35;20.58;;;;;;;6.44;43.10;95730.44;6300260;22;20051;-54
2022/03/07 09:51:50;;;;;;;27.08;20.77;;;;;;;6.68;43.28;95731.31;6299960;22;20429;-51
2022/03/07 09:54:15;;;;;;;29.52;21.08;;;;;;;6.91;42.26;95734.78;6300125;22;20008;-50
2022/03/07 09:56:41;;;;;;;30.30;21.45;;;;;;;7.27;41.26;95732.03;6300070;22;20010;-52
2022/03/07 09:59:07;;;;;;;24.70;21.63;;;;;;;7.19;41.11;95730.03;6300261;22;20007;-53
2022/03/07 10:01:32;;;;;;;28.00;21.73;;;;;;;7.34;40.20;95725.38;6299752;22;20454;-50
2022/03/07 10:04:13;;;;;;;25.58;21.50;;;;;;;7.48;38.74;95716.41;6272631;22;20045;-50
2022/03/07 10:06:47;;;;;;;24.15;21.15;;;;;;;7.68;39.92;95719.22;6299804;22;20003;-51
2022/03/07 10:09:19;;;;;;;26.40;21.80;;;;;;;7.98;38.27;95718.53;6299615;22;20078;-51
2022/03/07 10:12:03;;;;;;;23.88;20.90;;;;;;;8.40;38.18;95709.88;6300220;22;20003;-52
2022/03/07 10:14:37;;;;;;;29.10;25.33;;;;;;;8.82;37.32;95708.19;6300117;22;20056;-52
2022/03/07 10:17:03;;;;;;;23.33;20.88;;;;;;;8.68;35.13;95701.50;6299908;22;19999;-54
2022/03/07 10:19:29;;;;;;;23.33;20.80;;;;;;;8.76;36.84;95692.97;6299854;22;20567;-52
2022/03/07 10:21:54;;;;;;;24.70;20.95;;;;;;;9.01;35.73;95708.28;6300007;22;20004;-50
2022/03/07 10:24:34;;;;;;;25.23;21.40;;;;;;;8.50;36.71;95703.88;6299827;22;20355;-51
2022/03/07 10:27:00;;;;;;;26.70;21.70;;;;;;;8.72;36.43;95702.91;6299864;22;20094;-49
2022/03/07 10:29:26;;;;;;;23.13;20.30;;;;;;;8.80;36.02;95707.50;6272906;22;20347;-51
2022/03/07 10:31:51;;;;;;;24.40;21.85;;;;;;;8.66;37.05;95703.44;6299831;22;20008;-50
2022/03/07 10:34:16;;;;;;;26.40;22.73;;;;;;;8.84;37.95;95701.88;6300108;22;20018;-51
2022/03/07 10:36:43;;;;;;;23.42;20.85;;;;;;;9.28;36.95;95704.25;6299981;22;20449;-53
2022/03/07 10:39:15;;;;;;;23.42;21.02;;;;;;;9.59;35.98;95705.97;6299688;22;20011;-50
2022/03/07 10:41:45;;;;;;;28.05;22.85;;;;;;;9.65;36.13;95708.09;6300165;22;20007;-47
2022/03/07 10:44:27;;;;;;;23.67;20.70;;;;;;;10.17;34.69;95707.00;6299869;22;20470;-52
2022/03/07 10:46:53;;;;;;;24.88;21.98;;;;;;;10.07;35.03;95708.81;6299910;22;20488;-49
2022/03/07 10:49:18;;;;;;;24.38;21.77;;;;;;;10.21;34.27;95711.00;6299850;22;20070;-49
2022/03/07 10:51:51;;;;;;;28.33;21.48;;;;;;;10.45;33.75;95712.41;6299976;22;20083;-49
2022/03/07 10:54:19;;;;;;;24.55;21.58;;;;;;;10.85;33.78;95708.72;6300335;22;20011;-50
2022/03/07 10:56:52;;;;;;;23.67;21.25;;;;;;;11.42;32.48;95699.06;6299838;22;19999;-51
2022/03/07 10:59:32;;;;;;;23.88;21.25;;;;;;;10.98;31.44;95697.06;6299336;22;20004;-51
2022/03/07 11:02:06;;;;;;;24.30;21.77;;;;;;;11.53;32.09;95705.94;6271980;22;20079;-50
2022/03/07 11:04:33;;;;;;;25.77;21.35;;;;;;;11.28;32.62;95695.13;6299871;22;20015;-48
2022/03/07 11:06:59;;;;;;;24.88;21.17;;;;;;;11.34;31.79;95697.16;6299913;22;20018;-51
2022/03/07 11:09:25;;;;;;;27.42;22.02;;;;;;;12.18;31.94;95694.41;6299555;22;20029;-49
2022/03/07 11:11:53;;;;;;;24.17;21.60;;;;;;;12.29;30.37;95690.72;6299560;22;20003;-48
2022/03/07 11:14:19;;;;;;;23.63;21.23;;;;;;;12.23;32.06;95691.31;6299502;22;20087;-51